createdAt,value
2019-01-05T00:00:44.675Z,0.00
2019-01-05T00:01:44.642Z,0.00
2019-01-05T00:02:44.634Z,0.00
2019-01-05T00:03:45.189Z,0.00
2019-01-05T00:04:44.613Z,0.00
2019-01-05T00:05:44.567Z,0.00
2019-01-05T00:06:44.905Z,0.00
2019-01-05T00:07:44.583Z,0.00
2019-01-05T00:08:44.847Z,0.00
2019-01-05T00:09:44.558Z,0.00
2019-01-05T00:10:44.794Z,0.00
2019-01-05T00:11:44.558Z,0.00
2019-01-05T00:12:44.536Z,0.00
2019-01-05T00:13:44.761Z,0.00
2019-01-05T00:14:44.504Z,0.00
2019-01-05T00:15:44.489Z,0.00
2019-01-05T00:16:44.753Z,0.00
2019-01-05T00:17:44.427Z,0.00
2019-01-05T00:18:44.500Z,0.00
2019-01-05T00:19:44.421Z,0.00
2019-01-05T00:20:44.428Z,0.00
2019-01-05T00:21:44.441Z,0.00
2019-01-05T00:22:44.376Z,0.00
2019-01-05T00:23:44.368Z,0.00
2019-01-05T00:24:44.642Z,0.00
2019-01-05T00:25:44.372Z,0.00
2019-01-05T00:26:44.448Z,0.00
2019-01-05T00:27:44.355Z,0.00
2019-01-05T00:28:44.353Z,0.00
2019-01-05T00:29:44.334Z,0.00
2019-01-05T00:30:44.808Z,0.00
2019-01-05T00:31:44.370Z,0.00
2019-01-05T00:32:44.561Z,0.00
2019-01-05T00:33:44.281Z,0.00
2019-01-05T00:34:44.274Z,0.00
2019-01-05T00:35:44.270Z,0.00
2019-01-05T00:36:44.244Z,0.00
2019-01-05T00:37:44.848Z,0.00
2019-01-05T00:38:44.252Z,0.00
2019-01-05T00:39:44.220Z,0.00
2019-01-05T00:40:44.189Z,0.00
2019-01-05T00:41:44.225Z,0.00
2019-01-05T00:42:44.190Z,0.00
2019-01-05T00:43:44.177Z,0.00
2019-01-05T00:44:44.199Z,0.00
2019-01-05T00:45:44.661Z,0.00
2019-01-05T00:46:44.122Z,0.00
2019-01-05T00:47:44.134Z,0.00
2019-01-05T00:48:44.139Z,0.00
2019-01-05T00:49:44.117Z,0.00
2019-01-05T00:50:44.064Z,0.00
2019-01-05T00:51:44.118Z,0.00
2019-01-05T00:52:44.062Z,0.00
2019-01-05T00:53:44.329Z,0.00
2019-01-05T00:54:44.063Z,0.00
2019-01-05T00:55:44.339Z,0.00
2019-01-05T00:56:44.054Z,0.00
2019-01-05T00:57:43.987Z,0.00
2019-01-05T00:58:44.014Z,0.00
2019-01-05T00:59:46.208Z,0.00
2019-01-05T01:00:43.989Z,0.00
2019-01-05T01:01:44.002Z,0.00
2019-01-05T01:02:43.973Z,0.00
2019-01-05T01:03:43.958Z,0.00
2019-01-05T01:04:43.957Z,0.00
2019-01-05T01:05:44.194Z,0.00
2019-01-05T01:06:43.911Z,0.00
2019-01-05T01:07:44.317Z,0.00
2019-01-05T01:08:43.865Z,0.00
2019-01-05T01:09:44.113Z,0.00
2019-01-05T01:10:43.843Z,0.00
2019-01-05T01:11:44.136Z,0.00
2019-01-05T01:12:43.857Z,0.00
2019-01-05T01:13:44.065Z,0.00
2019-01-05T01:14:43.804Z,0.00
2019-01-05T01:15:43.878Z,0.00
2019-01-05T01:16:44.093Z,0.00
2019-01-05T01:17:43.799Z,0.00
2019-01-05T01:18:43.828Z,0.00
2019-01-05T01:19:44.002Z,0.00
2019-01-05T01:20:43.768Z,0.00
2019-01-05T01:21:43.792Z,0.00
2019-01-05T01:22:43.762Z,0.00
2019-01-05T01:23:43.726Z,0.00
2019-01-05T01:24:43.692Z,0.00
2019-01-05T01:25:43.940Z,0.00
2019-01-05T01:26:43.706Z,0.00
2019-01-05T01:27:43.691Z,0.00
2019-01-05T01:28:43.946Z,0.00
2019-01-05T01:29:44.262Z,0.00
2019-01-05T01:30:43.670Z,0.00
2019-01-05T01:31:43.628Z,0.00
2019-01-05T01:32:43.654Z,0.00
2019-01-05T01:33:43.600Z,0.00
2019-01-05T01:34:43.918Z,0.00
2019-01-05T01:35:43.614Z,0.00
2019-01-05T01:36:43.553Z,0.00
2019-01-05T01:37:43.859Z,0.00
2019-01-05T01:38:43.592Z,0.00
2019-01-05T01:39:43.574Z,0.00
2019-01-05T01:40:43.768Z,0.00
2019-01-05T01:41:43.559Z,0.00
2019-01-05T01:42:43.582Z,0.00
2019-01-05T01:43:43.529Z,0.00
2019-01-05T01:44:43.497Z,0.00
2019-01-05T01:45:43.462Z,0.00
2019-01-05T01:46:43.462Z,0.00
2019-01-05T01:47:43.456Z,0.00
2019-01-05T01:48:43.715Z,0.00
2019-01-05T01:49:43.960Z,0.00
2019-01-05T01:50:43.439Z,0.00
2019-01-05T01:51:43.435Z,0.00
2019-01-05T01:52:43.456Z,0.00
2019-01-05T01:53:43.420Z,0.00
2019-01-05T01:54:43.617Z,0.00
2019-01-05T01:55:43.347Z,0.00
2019-01-05T01:56:43.389Z,0.00
2019-01-05T01:57:43.390Z,0.00
2019-01-05T01:58:43.322Z,0.00
2019-01-05T01:59:43.555Z,0.00
2019-01-05T02:00:43.309Z,0.00
2019-01-05T02:01:43.302Z,0.00
2019-01-05T02:02:43.556Z,0.00
2019-01-05T02:03:43.265Z,0.00
2019-01-05T02:04:43.277Z,0.00
2019-01-05T02:05:44.030Z,0.00
2019-01-05T02:06:43.430Z,0.00
2019-01-05T02:07:43.477Z,0.00
2019-01-05T02:08:43.707Z,0.00
2019-01-05T02:09:43.242Z,0.00
2019-01-05T02:10:43.226Z,0.00
2019-01-05T02:11:43.169Z,0.00
2019-01-05T02:12:43.230Z,0.00
2019-01-05T02:13:43.155Z,0.00
2019-01-05T02:14:43.193Z,0.00
2019-01-05T02:15:43.129Z,0.00
2019-01-05T02:16:43.615Z,0.00
2019-01-05T02:17:43.161Z,0.00
2019-01-05T02:18:43.133Z,0.00
2019-01-05T02:19:43.088Z,0.00
2019-01-05T02:20:43.333Z,0.00
2019-01-05T02:21:43.068Z,0.00
2019-01-05T02:22:43.319Z,0.00
2019-01-05T02:23:43.077Z,0.00
2019-01-05T02:24:43.030Z,0.00
2019-01-05T02:25:43.795Z,0.00
2019-01-05T02:26:43.269Z,0.00
2019-01-05T02:27:43.263Z,0.00
2019-01-05T02:28:43.000Z,0.00
2019-01-05T02:29:42.970Z,0.00
2019-01-05T02:30:42.968Z,0.00
2019-01-05T02:31:43.096Z,0.00
2019-01-05T02:32:42.991Z,0.00
2019-01-05T02:33:43.178Z,0.00
2019-01-05T02:34:43.190Z,0.00
2019-01-05T02:35:42.947Z,0.00
2019-01-05T02:36:42.939Z,0.00
2019-01-05T02:37:42.932Z,0.00
2019-01-05T02:38:42.905Z,0.00
2019-01-05T02:39:43.114Z,0.00
2019-01-05T02:40:43.103Z,0.00
2019-01-05T02:41:43.129Z,0.00
2019-01-05T02:42:43.150Z,0.00
2019-01-05T02:43:43.117Z,0.00
2019-01-05T02:44:43.094Z,0.00
2019-01-05T02:45:43.077Z,0.00
2019-01-05T02:46:43.030Z,0.00
2019-01-05T02:47:42.772Z,0.00
2019-01-05T02:48:42.765Z,0.00
2019-01-05T02:49:42.742Z,0.00
2019-01-05T02:50:43.238Z,0.00
2019-01-05T02:51:44.438Z,0.00
2019-01-05T02:52:42.707Z,0.00
2019-01-05T02:53:42.729Z,0.00
2019-01-05T02:54:42.705Z,0.00
2019-01-05T02:55:42.931Z,0.00
2019-01-05T02:56:42.916Z,0.00
2019-01-05T02:57:42.946Z,0.00
2019-01-05T02:58:42.757Z,0.00
2019-01-05T02:59:42.670Z,0.00
2019-01-05T03:00:42.909Z,0.00
2019-01-05T03:01:43.084Z,0.00
2019-01-05T03:02:42.868Z,0.00
2019-01-05T03:03:42.887Z,0.00
2019-01-05T03:04:42.619Z,0.00
2019-01-05T03:05:42.597Z,0.00
2019-01-05T03:06:42.664Z,0.00
2019-01-05T03:07:42.540Z,0.00
2019-01-05T03:08:42.597Z,0.00
2019-01-05T03:09:42.553Z,0.00
2019-01-05T03:10:42.511Z,0.00
2019-01-05T03:11:42.508Z,0.00
2019-01-05T03:12:42.526Z,0.00
2019-01-05T03:13:42.532Z,0.00
2019-01-05T03:14:42.468Z,0.00
2019-01-05T03:15:42.951Z,0.00
2019-01-05T03:16:42.460Z,0.00
2019-01-05T03:17:42.462Z,0.00
2019-01-05T03:18:42.435Z,0.00
2019-01-05T03:19:42.673Z,0.00
2019-01-05T03:20:42.395Z,0.00
2019-01-05T03:21:42.420Z,0.00
2019-01-05T03:22:42.381Z,0.00
2019-01-05T03:23:42.642Z,0.00
2019-01-05T03:24:42.604Z,0.00
2019-01-05T03:25:42.414Z,0.00
2019-01-05T03:26:42.371Z,0.00
2019-01-05T03:27:42.359Z,0.00
2019-01-05T03:28:42.574Z,0.00
2019-01-05T03:29:42.331Z,0.00
2019-01-05T03:30:42.666Z,0.00
2019-01-05T03:31:42.302Z,0.00
2019-01-05T03:32:42.684Z,0.00
2019-01-05T03:33:42.300Z,0.00
2019-01-05T03:34:42.533Z,0.00
2019-01-05T03:35:42.232Z,0.00
2019-01-05T03:36:42.474Z,0.00
2019-01-05T03:37:42.491Z,0.00
2019-01-05T03:38:42.207Z,0.00
2019-01-05T03:39:42.437Z,0.00
2019-01-05T03:40:42.431Z,0.00
2019-01-05T03:41:42.421Z,0.00
2019-01-05T03:42:42.193Z,0.00
2019-01-05T03:43:42.163Z,0.00
2019-01-05T03:44:42.141Z,0.00
2019-01-05T03:45:42.379Z,0.00
2019-01-05T03:46:42.611Z,0.00
2019-01-05T03:47:42.113Z,0.00
2019-01-05T03:48:42.404Z,0.00
2019-01-05T03:49:42.073Z,0.00
2019-01-05T03:50:42.064Z,0.00
2019-01-05T03:51:42.865Z,0.00
2019-01-05T03:52:42.039Z,0.00
2019-01-05T03:53:42.327Z,0.00
2019-01-05T03:54:42.024Z,0.00
2019-01-05T03:55:42.316Z,0.00
2019-01-05T03:56:42.026Z,0.00
2019-01-05T03:57:41.982Z,0.00
2019-01-05T03:58:42.289Z,0.00
2019-01-05T03:59:42.221Z,0.00
2019-01-05T04:00:42.253Z,0.00
2019-01-05T04:01:41.943Z,0.00
2019-01-05T04:02:41.939Z,0.00
2019-01-05T04:03:41.999Z,0.00
2019-01-05T04:04:41.910Z,0.00
2019-01-05T04:05:42.197Z,0.00
2019-01-05T04:06:41.881Z,0.00
2019-01-05T04:07:42.115Z,0.00
2019-01-05T04:08:41.872Z,0.00
2019-01-05T04:09:42.116Z,0.00
2019-01-05T04:10:41.840Z,0.00
2019-01-05T04:11:42.118Z,0.00
2019-01-05T04:12:41.820Z,0.00
2019-01-05T04:13:41.819Z,0.00
2019-01-05T04:14:41.826Z,0.00
2019-01-05T04:15:41.828Z,0.00
2019-01-05T04:16:42.031Z,0.00
2019-01-05T04:17:41.767Z,0.00
2019-01-05T04:18:41.750Z,0.00
2019-01-05T04:19:41.758Z,0.00
2019-01-05T04:20:41.767Z,0.00
2019-01-05T04:21:41.782Z,0.00
2019-01-05T04:22:41.955Z,0.00
2019-01-05T04:23:41.711Z,0.00
2019-01-05T04:24:41.940Z,0.00
2019-01-05T04:25:41.676Z,0.00
2019-01-05T04:26:41.663Z,0.00
2019-01-05T04:27:41.710Z,0.00
2019-01-05T04:28:41.638Z,0.00
2019-01-05T04:29:41.894Z,0.00
2019-01-05T04:30:41.984Z,0.00
2019-01-05T04:31:41.613Z,0.00
2019-01-05T04:32:41.632Z,0.00
2019-01-05T04:33:41.831Z,0.00
2019-01-05T04:34:41.838Z,0.00
2019-01-05T04:35:41.875Z,0.00
2019-01-05T04:36:41.855Z,0.00
2019-01-05T04:37:41.539Z,0.00
2019-01-05T04:38:41.525Z,0.00
2019-01-05T04:39:41.531Z,0.00
2019-01-05T04:40:41.520Z,0.00
2019-01-05T04:41:41.492Z,0.00
2019-01-05T04:42:41.492Z,0.00
2019-01-05T04:43:41.726Z,0.00
2019-01-05T04:44:41.511Z,0.00
2019-01-05T04:45:41.515Z,0.00
2019-01-05T04:46:41.710Z,0.00
2019-01-05T04:47:41.505Z,0.00
2019-01-05T04:48:41.709Z,0.00
2019-01-05T04:49:41.674Z,0.00
2019-01-05T04:50:41.400Z,0.00
2019-01-05T04:51:41.382Z,0.00
2019-01-05T04:52:41.417Z,0.00
2019-01-05T04:53:41.374Z,0.00
2019-01-05T04:54:41.359Z,0.00
2019-01-05T04:55:41.602Z,0.00
2019-01-05T04:56:41.363Z,0.00
2019-01-05T04:57:41.357Z,0.00
2019-01-05T04:58:41.577Z,0.00
2019-01-05T04:59:41.611Z,0.00
2019-01-05T05:00:41.311Z,0.00
2019-01-05T05:01:41.284Z,0.00
2019-01-05T05:02:41.296Z,0.00
2019-01-05T05:03:41.253Z,0.00
2019-01-05T05:04:41.527Z,0.00
2019-01-05T05:05:41.240Z,0.00
2019-01-05T05:06:41.210Z,0.00
2019-01-05T05:07:41.456Z,0.00
2019-01-05T05:08:41.446Z,0.00
2019-01-05T05:09:41.191Z,0.00
2019-01-05T05:10:41.447Z,0.00
2019-01-05T05:11:41.426Z,0.00
2019-01-05T05:12:41.139Z,0.00
2019-01-05T05:13:41.147Z,0.00
2019-01-05T05:14:41.959Z,0.00
2019-01-05T05:15:41.129Z,0.00
2019-01-05T05:16:41.117Z,0.00
2019-01-05T05:17:41.111Z,0.00
2019-01-05T05:18:41.370Z,0.00
2019-01-05T05:19:41.087Z,0.00
2019-01-05T05:20:41.062Z,0.00
2019-01-05T05:21:41.047Z,0.00
2019-01-05T05:22:41.327Z,0.00
2019-01-05T05:23:41.021Z,0.00
2019-01-05T05:24:41.028Z,0.00
2019-01-05T05:25:41.004Z,0.00
2019-01-05T05:26:41.142Z,0.00
2019-01-05T05:27:41.240Z,0.00
2019-01-05T05:28:41.001Z,0.00
2019-01-05T05:29:40.979Z,0.00
2019-01-05T05:30:43.487Z,0.00
2019-01-05T05:31:40.929Z,0.00
2019-01-05T05:32:40.933Z,0.00
2019-01-05T05:33:40.948Z,0.00
2019-01-05T05:34:40.902Z,0.00
2019-01-05T05:35:40.891Z,0.00
2019-01-05T05:36:40.927Z,0.00
2019-01-05T05:37:40.885Z,0.00
2019-01-05T05:38:40.913Z,0.00
2019-01-05T05:39:41.131Z,0.00
2019-01-05T05:40:40.865Z,0.00
2019-01-05T05:41:40.822Z,0.00
2019-01-05T05:42:40.808Z,0.00
2019-01-05T05:43:41.268Z,0.00
2019-01-05T05:44:41.065Z,0.00
2019-01-05T05:45:40.779Z,0.00
2019-01-05T05:46:40.775Z,0.00
2019-01-05T05:47:40.758Z,0.00
2019-01-05T05:48:40.758Z,0.00
2019-01-05T05:49:40.735Z,0.00
2019-01-05T05:50:40.791Z,0.00
2019-01-05T05:51:40.727Z,0.00
2019-01-05T05:52:40.953Z,0.00
2019-01-05T05:53:40.745Z,0.00
2019-01-05T05:54:40.690Z,0.00
2019-01-05T05:55:40.683Z,0.00
2019-01-05T05:56:40.665Z,0.00
2019-01-05T05:57:40.640Z,0.00
2019-01-05T05:58:40.903Z,0.00
2019-01-05T05:59:40.899Z,0.00
2019-01-05T06:00:40.633Z,0.00
2019-01-05T06:01:40.613Z,0.00
2019-01-05T06:02:40.611Z,0.00
2019-01-05T06:03:40.578Z,0.00
2019-01-05T06:04:40.579Z,0.00
2019-01-05T06:05:40.578Z,0.00
2019-01-05T06:06:40.538Z,0.00
2019-01-05T06:07:40.540Z,0.00
2019-01-05T06:08:40.795Z,0.00
2019-01-05T06:09:40.504Z,0.00
2019-01-05T06:10:40.565Z,0.00
2019-01-05T06:11:41.107Z,0.00
2019-01-05T06:12:40.477Z,0.00
2019-01-05T06:13:40.475Z,0.00
2019-01-05T06:14:40.455Z,0.00
2019-01-05T06:15:40.471Z,0.00
2019-01-05T06:16:40.443Z,0.00
2019-01-05T06:17:40.424Z,0.00
2019-01-05T06:18:40.416Z,0.00
2019-01-05T06:19:40.661Z,0.00
2019-01-05T06:20:40.415Z,0.00
2019-01-05T06:21:40.886Z,0.00
2019-01-05T06:22:40.373Z,0.00
2019-01-05T06:23:40.361Z,0.00
2019-01-05T06:24:40.346Z,0.00
2019-01-05T06:25:40.360Z,0.00
2019-01-05T06:26:40.331Z,0.00
2019-01-05T06:27:40.335Z,0.00
2019-01-05T06:28:40.802Z,0.00
2019-01-05T06:29:40.290Z,0.00
2019-01-05T06:30:40.350Z,0.00
2019-01-05T06:31:40.271Z,0.00
2019-01-05T06:32:40.262Z,0.00
2019-01-05T06:33:40.547Z,0.00
2019-01-05T06:34:40.247Z,0.00
2019-01-05T06:35:40.240Z,0.00
2019-01-05T06:36:40.225Z,0.00
2019-01-05T06:37:40.207Z,0.00
2019-01-05T06:38:40.693Z,0.00
2019-01-05T06:39:40.201Z,0.00
2019-01-05T06:40:40.434Z,0.00
2019-01-05T06:41:40.162Z,0.00
2019-01-05T06:42:40.405Z,0.00
2019-01-05T06:43:40.130Z,0.00
2019-01-05T06:44:40.133Z,0.00
2019-01-05T06:45:40.523Z,0.00
2019-01-05T06:46:40.111Z,0.00
2019-01-05T06:47:40.134Z,0.00
2019-01-05T06:48:40.577Z,0.00
2019-01-05T06:49:40.327Z,0.00
2019-01-05T06:50:40.311Z,0.00
2019-01-05T06:51:40.061Z,0.00
2019-01-05T06:52:40.028Z,0.00
2019-01-05T06:53:40.023Z,0.00
2019-01-05T06:54:40.026Z,0.00
2019-01-05T06:55:40.003Z,0.00
2019-01-05T06:56:40.021Z,0.00
2019-01-05T06:57:39.982Z,0.00
2019-01-05T06:58:39.982Z,0.00
2019-01-05T06:59:39.962Z,0.00
2019-01-05T07:00:39.977Z,0.00
2019-01-05T07:01:39.970Z,0.00
2019-01-05T07:02:39.926Z,0.00
2019-01-05T07:03:39.930Z,0.00
2019-01-05T07:04:39.908Z,0.00
2019-01-05T07:05:40.151Z,0.00
2019-01-05T07:06:39.891Z,0.00
2019-01-05T07:07:40.125Z,0.00
2019-01-05T07:08:39.862Z,0.00
2019-01-05T07:09:39.862Z,0.00
2019-01-05T07:10:39.856Z,0.00
2019-01-05T07:11:40.143Z,0.00
2019-01-05T07:12:39.821Z,0.00
2019-01-05T07:13:39.895Z,0.00
2019-01-05T07:14:39.793Z,0.00
2019-01-05T07:15:40.040Z,0.00
2019-01-05T07:16:39.802Z,0.00
2019-01-05T07:17:39.758Z,0.00
2019-01-05T07:18:39.992Z,0.00
2019-01-05T07:19:39.733Z,0.00
2019-01-05T07:20:39.716Z,0.00
2019-01-05T07:21:40.293Z,0.00
2019-01-05T07:22:40.004Z,0.00
2019-01-05T07:23:39.683Z,0.00
2019-01-05T07:24:39.673Z,0.00
2019-01-05T07:25:39.720Z,0.00
2019-01-05T07:26:39.669Z,0.00
2019-01-05T07:27:40.147Z,0.00
2019-01-05T07:28:39.658Z,0.00
2019-01-05T07:29:39.882Z,0.00
2019-01-05T07:30:39.606Z,0.00
2019-01-05T07:31:39.609Z,0.00
2019-01-05T07:32:39.603Z,0.00
2019-01-05T07:33:39.576Z,0.00
2019-01-05T07:34:39.561Z,0.00
2019-01-05T07:35:39.802Z,0.00
2019-01-05T07:36:39.575Z,0.00
2019-01-05T07:37:39.834Z,0.00
2019-01-05T07:38:39.521Z,0.00
2019-01-05T07:39:39.501Z,0.00
2019-01-05T07:40:39.497Z,4.00
2019-01-05T07:41:39.496Z,0.00
2019-01-05T07:42:39.491Z,0.00
2019-01-05T07:43:39.463Z,4.00
2019-01-05T07:44:39.446Z,4.00
2019-01-05T07:45:39.458Z,4.00
2019-01-05T07:46:39.443Z,4.00
2019-01-05T07:47:39.423Z,4.00
2019-01-05T07:48:39.666Z,4.00
2019-01-05T07:49:39.644Z,4.00
2019-01-05T07:50:39.807Z,4.00
2019-01-05T07:51:39.391Z,4.00
2019-01-05T07:52:39.363Z,4.00
2019-01-05T07:53:39.369Z,4.00
2019-01-05T07:54:39.335Z,4.00
2019-01-05T07:55:39.327Z,4.00
2019-01-05T07:56:39.366Z,8.00
2019-01-05T07:57:39.329Z,8.00
2019-01-05T07:58:39.295Z,8.00
2019-01-05T07:59:39.279Z,8.00
2019-01-05T08:00:40.352Z,8.00
2019-01-05T08:01:39.275Z,12.00
2019-01-05T08:02:39.251Z,12.00
2019-01-05T08:03:39.332Z,12.00
2019-01-05T08:04:39.232Z,12.00
2019-01-05T08:05:39.216Z,12.00
2019-01-05T08:06:39.474Z,12.00
2019-01-05T08:07:39.237Z,8.00
2019-01-05T08:08:39.283Z,12.00
2019-01-05T08:09:39.498Z,8.00
2019-01-05T08:10:39.189Z,8.00
2019-01-05T08:11:39.163Z,8.00
2019-01-05T08:12:39.141Z,8.00
2019-01-05T08:13:39.400Z,8.00
2019-01-05T08:14:39.113Z,8.00
2019-01-05T08:15:39.114Z,8.00
2019-01-05T08:16:39.236Z,12.00
2019-01-05T08:17:39.332Z,8.00
2019-01-05T08:18:39.318Z,12.00
2019-01-05T08:19:39.078Z,12.00
2019-01-05T08:20:39.051Z,12.00
2019-01-05T08:21:39.048Z,12.00
2019-01-05T08:22:39.030Z,8.00
2019-01-05T08:23:39.010Z,12.00
2019-01-05T08:24:38.999Z,8.00
2019-01-05T08:25:38.999Z,12.00
2019-01-05T08:26:39.225Z,16.00
2019-01-05T08:27:38.967Z,12.00
2019-01-05T08:28:39.002Z,12.00
2019-01-05T08:29:38.988Z,16.00
2019-01-05T08:30:38.937Z,12.00
2019-01-05T08:31:38.926Z,12.00
2019-01-05T08:32:38.908Z,16.00
2019-01-05T08:33:38.916Z,16.00
2019-01-05T08:34:38.885Z,20.00
2019-01-05T08:35:38.926Z,24.00
2019-01-05T08:36:39.116Z,20.00
2019-01-05T08:37:38.862Z,20.00
2019-01-05T08:38:38.873Z,20.00
2019-01-05T08:39:38.844Z,20.00
2019-01-05T08:40:38.866Z,20.00
2019-01-05T08:41:38.848Z,20.00
2019-01-05T08:42:39.057Z,16.00
2019-01-05T08:43:38.806Z,20.00
2019-01-05T08:44:38.785Z,20.00
2019-01-05T08:45:38.762Z,16.00
2019-01-05T08:46:38.851Z,20.00
2019-01-05T08:47:38.753Z,16.00
2019-01-05T08:48:38.750Z,16.00
2019-01-05T08:49:38.718Z,20.00
2019-01-05T08:50:38.713Z,16.00
2019-01-05T08:51:38.952Z,16.00
2019-01-05T08:52:38.937Z,16.00
2019-01-05T08:53:38.718Z,20.00
2019-01-05T08:54:38.683Z,16.00
2019-01-05T08:55:38.656Z,20.00
2019-01-05T08:56:38.637Z,16.00
2019-01-05T08:57:39.148Z,20.00
2019-01-05T08:58:38.632Z,28.00
2019-01-05T08:59:38.615Z,28.00
2019-01-05T09:00:38.627Z,20.00
2019-01-05T09:01:38.584Z,20.00
2019-01-05T09:02:38.697Z,20.00
2019-01-05T09:03:38.811Z,16.00
2019-01-05T09:04:38.807Z,20.00
2019-01-05T09:05:38.550Z,24.00
2019-01-05T09:06:38.539Z,24.00
2019-01-05T09:07:38.550Z,24.00
2019-01-05T09:08:38.572Z,20.00
2019-01-05T09:09:38.507Z,16.00
2019-01-05T09:10:38.736Z,20.00
2019-01-05T09:11:38.482Z,16.00
2019-01-05T09:12:38.727Z,16.00
2019-01-05T09:13:38.449Z,16.00
2019-01-05T09:14:38.449Z,20.00
2019-01-05T09:15:38.438Z,24.00
2019-01-05T09:16:38.463Z,20.00
2019-01-05T09:17:38.416Z,20.00
2019-01-05T09:18:38.413Z,20.00
2019-01-05T09:19:38.382Z,20.00
2019-01-05T09:20:38.394Z,20.00
2019-01-05T09:21:38.386Z,20.00
2019-01-05T09:22:38.407Z,20.00
2019-01-05T09:23:38.332Z,16.00
2019-01-05T09:24:38.327Z,20.00
2019-01-05T09:25:38.556Z,16.00
2019-01-05T09:26:38.309Z,20.00
2019-01-05T09:27:38.304Z,16.00
2019-01-05T09:28:38.296Z,20.00
2019-01-05T09:29:38.354Z,16.00
2019-01-05T09:30:38.275Z,16.00
2019-01-05T09:31:38.310Z,16.00
2019-01-05T09:32:38.487Z,16.00
2019-01-05T09:33:38.237Z,16.00
2019-01-05T09:34:38.209Z,16.00
2019-01-05T09:35:38.454Z,20.00
2019-01-05T09:36:38.208Z,20.00
2019-01-05T09:37:38.193Z,20.00
2019-01-05T09:38:38.169Z,16.00
2019-01-05T09:39:38.159Z,16.00
2019-01-05T09:40:38.143Z,16.00
2019-01-05T09:41:38.185Z,16.00
2019-01-05T09:42:38.136Z,20.00
2019-01-05T09:43:38.108Z,28.00
2019-01-05T09:44:38.106Z,20.00
2019-01-05T09:45:38.359Z,24.00
2019-01-05T09:46:38.077Z,20.00
2019-01-05T09:47:38.083Z,20.00
2019-01-05T09:48:38.371Z,16.00
2019-01-05T09:49:38.045Z,20.00
2019-01-05T09:50:38.043Z,20.00
2019-01-05T09:51:38.741Z,20.00
2019-01-05T09:52:38.058Z,16.00
2019-01-05T09:53:38.280Z,20.00
2019-01-05T09:54:37.989Z,20.00
2019-01-05T09:55:37.967Z,20.00
2019-01-05T09:56:37.960Z,24.00
2019-01-05T09:57:39.206Z,28.00
2019-01-05T09:58:37.942Z,28.00
2019-01-05T09:59:37.937Z,24.00
2019-01-05T10:00:38.186Z,28.00
2019-01-05T10:01:37.911Z,24.00
2019-01-05T10:02:37.944Z,24.00
2019-01-05T10:03:37.898Z,32.00
2019-01-05T10:04:37.866Z,28.00
2019-01-05T10:05:38.124Z,36.00
2019-01-05T10:06:37.866Z,28.00
2019-01-05T10:07:37.863Z,32.00
2019-01-05T10:08:37.831Z,40.00
2019-01-05T10:09:37.857Z,32.00
2019-01-05T10:10:37.859Z,32.00
2019-01-05T10:11:38.048Z,28.00
2019-01-05T10:12:37.789Z,28.00
2019-01-05T10:13:37.774Z,28.00
2019-01-05T10:14:38.018Z,28.00
2019-01-05T10:15:38.085Z,32.00
2019-01-05T10:16:37.740Z,28.00
2019-01-05T10:17:37.729Z,28.00
2019-01-05T10:18:37.720Z,28.00
2019-01-05T10:19:37.703Z,28.00
2019-01-05T10:20:37.754Z,28.00
2019-01-05T10:21:37.688Z,24.00
2019-01-05T10:22:37.994Z,28.00
2019-01-05T10:23:37.923Z,28.00
2019-01-05T10:24:37.730Z,28.00
2019-01-05T10:25:37.633Z,32.00
2019-01-05T10:26:37.878Z,28.00
2019-01-05T10:27:37.905Z,32.00
2019-01-05T10:28:37.867Z,28.00
2019-01-05T10:29:37.637Z,28.00
2019-01-05T10:30:37.581Z,36.00
2019-01-05T10:31:37.577Z,36.00
2019-01-05T10:32:37.576Z,32.00
2019-01-05T10:33:37.823Z,32.00
2019-01-05T10:34:37.802Z,28.00
2019-01-05T10:35:37.522Z,32.00
2019-01-05T10:36:37.520Z,32.00
2019-01-05T10:37:37.517Z,32.00
2019-01-05T10:38:37.508Z,28.00
2019-01-05T10:39:37.488Z,24.00
2019-01-05T10:40:38.114Z,28.00
2019-01-05T10:41:37.459Z,28.00
2019-01-05T10:42:37.535Z,24.00
2019-01-05T10:43:37.755Z,32.00
2019-01-05T10:44:37.433Z,32.00
2019-01-05T10:45:37.433Z,40.00
2019-01-05T10:46:37.400Z,40.00
2019-01-05T10:47:37.663Z,32.00
2019-01-05T10:48:37.397Z,28.00
2019-01-05T10:49:37.383Z,32.00
2019-01-05T10:50:37.616Z,36.00
2019-01-05T10:51:37.361Z,36.00
2019-01-05T10:52:37.379Z,32.00
2019-01-05T10:53:37.356Z,32.00
2019-01-05T10:54:37.581Z,32.00
2019-01-05T10:55:37.552Z,28.00
2019-01-05T10:56:37.337Z,28.00
2019-01-05T10:57:37.823Z,24.00
2019-01-05T10:58:37.324Z,24.00
2019-01-05T10:59:37.260Z,24.00
2019-01-05T11:00:37.251Z,24.00
2019-01-05T11:01:37.258Z,28.00
2019-01-05T11:02:37.239Z,32.00
2019-01-05T11:03:37.493Z,32.00
2019-01-05T11:04:37.276Z,32.00
2019-01-05T11:05:37.197Z,28.00
2019-01-05T11:06:37.700Z,32.00
2019-01-05T11:07:37.192Z,32.00
2019-01-05T11:08:37.175Z,28.00
2019-01-05T11:09:37.516Z,28.00
2019-01-05T11:10:37.439Z,28.00
2019-01-05T11:11:37.148Z,24.00
2019-01-05T11:12:37.436Z,28.00
2019-01-05T11:13:37.381Z,24.00
2019-01-05T11:14:37.100Z,28.00
2019-01-05T11:15:37.342Z,32.00
2019-01-05T11:16:37.109Z,32.00
2019-01-05T11:17:37.062Z,32.00
2019-01-05T11:18:37.062Z,36.00
2019-01-05T11:19:37.082Z,32.00
2019-01-05T11:20:37.035Z,36.00
2019-01-05T11:21:37.026Z,36.00
2019-01-05T11:22:38.098Z,40.00
2019-01-05T11:23:37.156Z,48.00
2019-01-05T11:24:37.607Z,44.00
2019-01-05T11:25:37.930Z,48.00
2019-01-05T11:26:36.961Z,44.00
2019-01-05T11:27:37.030Z,44.00
2019-01-05T11:28:37.273Z,48.00
2019-01-05T11:29:36.944Z,48.00
2019-01-05T11:30:37.185Z,40.00
2019-01-05T11:31:37.174Z,36.00
2019-01-05T11:32:36.938Z,36.00
2019-01-05T11:33:36.985Z,36.00
2019-01-05T11:34:36.872Z,36.00
2019-01-05T11:35:37.103Z,32.00
2019-01-05T11:36:36.879Z,32.00
2019-01-05T11:37:38.655Z,36.00
2019-01-05T11:38:37.819Z,32.00
2019-01-05T11:39:37.486Z,32.00
2019-01-05T11:40:36.807Z,36.00
2019-01-05T11:41:37.050Z,44.00
2019-01-05T11:42:36.927Z,48.00
2019-01-05T11:43:37.035Z,52.00
2019-01-05T11:44:36.767Z,52.00
2019-01-05T11:45:36.747Z,48.00
2019-01-05T11:46:36.743Z,48.00
2019-01-05T11:47:36.742Z,48.00
2019-01-05T11:48:36.748Z,40.00
2019-01-05T11:49:36.736Z,40.00
2019-01-05T11:50:36.941Z,36.00
2019-01-05T11:51:36.716Z,36.00
2019-01-05T11:52:36.782Z,36.00
2019-01-05T11:53:36.670Z,36.00
2019-01-05T11:54:36.691Z,32.00
2019-01-05T11:55:36.642Z,32.00
2019-01-05T11:56:37.137Z,40.00
2019-01-05T11:57:36.612Z,36.00
2019-01-05T11:58:36.611Z,32.00
2019-01-05T11:59:36.867Z,36.00
2019-01-05T12:00:36.894Z,28.00
2019-01-05T12:01:37.396Z,32.00
2019-01-05T12:02:37.096Z,36.00
2019-01-05T12:03:39.588Z,32.00
2019-01-05T12:04:36.634Z,32.00
2019-01-05T12:05:36.745Z,32.00
2019-01-05T12:06:36.530Z,28.00
2019-01-05T12:07:36.524Z,32.00
2019-01-05T12:08:36.511Z,32.00
2019-01-05T12:09:36.521Z,28.00
2019-01-05T12:10:36.734Z,36.00
2019-01-05T12:11:36.778Z,32.00
2019-01-05T12:12:36.461Z,32.00
2019-01-05T12:13:36.460Z,32.00
2019-01-05T12:14:36.454Z,28.00
2019-01-05T12:15:36.421Z,28.00
2019-01-05T12:16:40.768Z,32.00
2019-01-05T12:17:37.697Z,24.00
2019-01-05T12:18:36.477Z,28.00
2019-01-05T12:19:36.385Z,28.00
2019-01-05T12:20:36.726Z,28.00
2019-01-05T12:21:36.522Z,20.00
2019-01-05T12:22:36.403Z,20.00
2019-01-05T12:23:36.388Z,24.00
2019-01-05T12:24:36.381Z,24.00
2019-01-05T12:25:36.311Z,24.00
2019-01-05T12:26:36.338Z,24.00
2019-01-05T12:27:36.321Z,24.00
2019-01-05T12:28:37.037Z,24.00
2019-01-05T12:29:36.392Z,24.00
2019-01-05T12:30:36.600Z,24.00
2019-01-05T12:31:39.119Z,28.00
2019-01-05T12:32:36.600Z,32.00
2019-01-05T12:33:36.216Z,32.00
2019-01-05T12:34:37.095Z,28.00
2019-01-05T12:35:36.187Z,28.00
2019-01-05T12:36:36.244Z,28.00
2019-01-05T12:37:36.157Z,24.00
2019-01-05T12:38:36.647Z,24.00
2019-01-05T12:39:36.220Z,28.00
2019-01-05T12:40:36.167Z,32.00
2019-01-05T12:41:36.162Z,28.00
2019-01-05T12:42:36.121Z,28.00
2019-01-05T12:43:36.355Z,28.00
2019-01-05T12:44:36.097Z,32.00
2019-01-05T12:45:36.094Z,32.00
2019-01-05T12:46:36.090Z,28.00
2019-01-05T12:47:36.297Z,28.00
2019-01-05T12:48:36.120Z,28.00
2019-01-05T12:49:36.776Z,28.00
2019-01-05T12:50:36.022Z,32.00
2019-01-05T12:51:36.527Z,32.00
2019-01-05T12:52:36.003Z,24.00
2019-01-05T12:53:36.273Z,32.00
2019-01-05T12:54:36.864Z,24.00
2019-01-05T12:55:35.970Z,28.00
2019-01-05T12:56:36.146Z,28.00
2019-01-05T12:57:35.937Z,28.00
2019-01-05T12:58:35.925Z,28.00
2019-01-05T12:59:36.887Z,28.00
2019-01-05T13:00:35.925Z,24.00
2019-01-05T13:01:36.300Z,20.00
2019-01-05T13:02:35.887Z,20.00
2019-01-05T13:03:35.888Z,16.00
2019-01-05T13:04:35.867Z,20.00
2019-01-05T13:05:35.932Z,20.00
2019-01-05T13:06:35.882Z,20.00
2019-01-05T13:07:35.864Z,24.00
2019-01-05T13:08:36.331Z,24.00